createdAt,value
2022-09-24T00:03:12.723Z,28.1
2022-09-24T00:08:14.483Z,28.1
2022-09-24T00:13:16.241Z,28.1
2022-09-24T00:18:18.045Z,28.1
2022-09-24T00:23:19.812Z,28.1
2022-09-24T00:28:21.581Z,28.1
2022-09-24T00:33:23.364Z,28
2022-09-24T00:38:25.097Z,28
2022-09-24T00:43:26.872Z,28
2022-09-24T00:48:28.670Z,28
2022-09-24T00:53:30.421Z,28
2022-09-24T00:58:32.153Z,28
2022-09-24T01:03:34.155Z,28
2022-09-24T01:08:35.903Z,28
2022-09-24T01:13:41.190Z,28
2022-09-24T01:18:44.721Z,27.9
2022-09-24T01:23:48.910Z,27.9
2022-09-24T01:28:50.937Z,27.9
2022-09-24T01:33:52.660Z,27.9
2022-09-24T01:38:54.408Z,27.9
2022-09-24T01:43:56.143Z,27.9
2022-09-24T01:48:57.904Z,27.9
2022-09-24T01:53:59.872Z,27.9
2022-09-24T01:59:01.613Z,27.9
2022-09-24T02:04:03.369Z,27.9
2022-09-24T02:09:05.077Z,27.9
2022-09-24T02:14:06.920Z,27.9
2022-09-24T02:19:08.723Z,27.9
2022-09-24T02:24:10.506Z,27.9
2022-09-24T02:29:12.229Z,27.9
2022-09-24T02:34:13.987Z,27.9
2022-09-24T02:39:15.715Z,27.9
2022-09-24T02:44:17.666Z,27.9
2022-09-24T02:49:19.388Z,27.9
2022-09-24T02:54:21.113Z,27.8
2022-09-24T02:59:22.839Z,27.8
2022-09-24T03:04:24.606Z,27.8
2022-09-24T03:09:26.321Z,27.8
2022-09-24T03:14:28.081Z,27.8
2022-09-24T03:19:29.835Z,27.8
2022-09-24T03:24:31.536Z,27.8
2022-09-24T03:29:33.225Z,27.8
2022-09-24T03:34:34.973Z,27.8
2022-09-24T03:39:36.674Z,27.8
2022-09-24T03:44:38.415Z,27.8
2022-09-24T03:49:40.170Z,27.8
2022-09-24T03:54:41.896Z,27.8
2022-09-24T03:59:43.591Z,27.8
2022-09-24T04:04:45.336Z,27.8
2022-09-24T04:09:47.043Z,27.8
2022-09-24T04:14:48.741Z,27.8
2022-09-24T04:19:50.485Z,27.8
2022-09-24T04:24:52.163Z,27.7
2022-09-24T04:29:53.850Z,27.7
2022-09-24T04:34:55.548Z,27.7
2022-09-24T04:39:57.233Z,27.7
2022-09-24T04:44:58.943Z,27.7
2022-09-24T04:50:00.755Z,27.7
2022-09-24T04:55:02.497Z,27.7
2022-09-24T05:00:04.188Z,27.7
2022-09-24T05:05:05.903Z,27.7
2022-09-24T05:10:07.611Z,27.6
2022-09-24T05:15:09.346Z,27.6
2022-09-24T05:20:11.081Z,27.6
2022-09-24T05:25:12.771Z,27.6
2022-09-24T05:30:14.495Z,27.6
2022-09-24T05:35:16.271Z,27.6
2022-09-24T05:40:18.261Z,27.6
2022-09-24T05:45:20.049Z,27.6
2022-09-24T05:50:21.769Z,27.6
2022-09-24T05:55:23.496Z,27.6
2022-09-24T06:00:25.235Z,27.6
2022-09-24T06:05:26.997Z,27.6
2022-09-24T06:10:28.927Z,27.6
2022-09-24T06:15:30.646Z,27.6
2022-09-24T06:20:32.376Z,27.6
2022-09-24T06:25:34.096Z,27.6
2022-09-24T06:30:36.055Z,27.6
2022-09-24T06:35:37.784Z,27.6
2022-09-24T06:40:39.527Z,27.6
2022-09-24T06:45:41.492Z,27.5
2022-09-24T06:50:43.331Z,27.5
2022-09-24T06:55:46.827Z,27.5
2022-09-24T07:00:48.630Z,27.5
2022-09-24T07:05:50.513Z,27.5
2022-09-24T07:10:52.372Z,27.5
2022-09-24T07:15:54.137Z,27.5
2022-09-24T07:20:55.936Z,27.5
2022-09-24T07:25:57.688Z,27.4
2022-09-24T07:30:59.561Z,27.4
2022-09-24T07:36:01.471Z,27.4
2022-09-24T07:41:03.155Z,27.4
2022-09-24T07:46:05.139Z,27.4
2022-09-24T07:51:07.077Z,27.4
2022-09-24T07:56:08.830Z,27.4
2022-09-24T08:01:10.532Z,27.4
2022-09-24T08:06:12.246Z,27.4
2022-09-24T08:11:13.959Z,27.4
2022-09-24T08:16:15.659Z,27.4
2022-09-24T08:21:17.393Z,27.4
2022-09-24T08:26:19.099Z,27.4
2022-09-24T08:31:20.824Z,27.4
2022-09-24T08:36:22.864Z,27.4
2022-09-24T08:41:24.543Z,27.4
2022-09-24T08:46:26.519Z,27.4
2022-09-24T08:51:32.790Z,27.4
2022-09-24T08:56:35.074Z,27.4
2022-09-24T09:01:36.862Z,27.4
2022-09-24T09:06:38.743Z,27.4
2022-09-24T09:11:40.424Z,27.4
2022-09-24T09:16:42.093Z,27.3
2022-09-24T09:21:43.807Z,27.3
2022-09-24T09:26:45.778Z,27.3
2022-09-24T09:31:50.302Z,27.3
2022-09-24T09:36:54.240Z,27.3
2022-09-24T09:41:55.940Z,27.3
2022-09-24T09:46:57.955Z,27.3
2022-09-24T09:51:59.801Z,27.3
2022-09-24T09:57:01.496Z,27.3
2022-09-24T10:02:03.254Z,27.2
2022-09-24T10:07:05.027Z,27.2
2022-09-24T10:12:06.734Z,27.2
2022-09-24T10:17:08.671Z,27.2
2022-09-24T10:22:10.439Z,27.2
2022-09-24T10:27:12.382Z,27.2
2022-09-24T10:32:14.054Z,27.2
2022-09-24T10:37:15.785Z,27.2
2022-09-24T10:42:17.468Z,27.2
2022-09-24T10:47:19.146Z,27.2
2022-09-24T10:52:20.958Z,27.2
2022-09-24T10:57:22.677Z,27.2
2022-09-24T11:02:24.421Z,27.2
2022-09-24T11:07:26.611Z,27.2
2022-09-24T11:12:28.388Z,27.2
2022-09-24T11:17:30.095Z,27.2
2022-09-24T11:22:31.826Z,27.2
2022-09-24T11:27:33.502Z,27.2
2022-09-24T11:32:35.413Z,27.2
2022-09-24T11:37:37.255Z,27.2
2022-09-24T11:42:39.139Z,27.2
2022-09-24T11:47:40.842Z,27.2
2022-09-24T11:52:42.612Z,27.1
2022-09-24T11:57:44.383Z,27.1
2022-09-24T12:02:46.074Z,27.1
2022-09-24T12:07:47.790Z,27.1
2022-09-24T12:12:49.686Z,27.1
2022-09-24T12:17:51.386Z,27.1
2022-09-24T12:22:53.089Z,27.1
2022-09-24T12:27:54.795Z,27.1
2022-09-24T12:32:56.481Z,27.1
2022-09-24T12:37:58.222Z,27.1
2022-09-24T12:42:59.891Z,27.1
2022-09-24T12:48:01.555Z,27.1
2022-09-24T12:53:03.259Z,27.1
2022-09-24T12:58:04.914Z,27.1
2022-09-24T13:03:06.715Z,27.1
2022-09-24T13:08:08.535Z,27.1
2022-09-24T13:13:10.238Z,27.1
2022-09-24T13:18:12.159Z,27.1
2022-09-24T13:23:13.858Z,27.1
2022-09-24T13:28:15.553Z,27.1
2022-09-24T13:33:17.233Z,27
2022-09-24T13:38:18.956Z,27
2022-09-24T13:43:20.672Z,27
2022-09-24T13:48:22.383Z,27
2022-09-24T13:53:24.084Z,27
2022-09-24T13:58:25.784Z,27
2022-09-24T14:03:27.495Z,27
2022-09-24T14:08:29.445Z,27
2022-09-24T14:13:31.164Z,27
2022-09-24T14:18:33.109Z,27
2022-09-24T14:23:34.840Z,26.9
2022-09-24T14:28:36.546Z,27
2022-09-24T14:33:38.276Z,26.9
2022-09-24T14:38:40.248Z,26.9
2022-09-24T14:43:41.939Z,26.9
2022-09-24T14:48:43.644Z,26.9
2022-09-24T14:53:45.442Z,26.9
2022-09-24T14:58:47.196Z,26.9
2022-09-24T15:03:48.922Z,26.9
2022-09-24T15:08:50.829Z,26.9
2022-09-24T15:13:52.853Z,26.9
2022-09-24T15:18:54.572Z,26.9
2022-09-24T15:23:56.341Z,26.9
2022-09-24T15:28:58.081Z,26.9
2022-09-24T15:33:59.794Z,26.9
2022-09-24T15:39:01.539Z,26.9
2022-09-24T15:44:03.270Z,26.9
2022-09-24T15:49:05.097Z,26.9
2022-09-24T15:54:07.167Z,26.9
2022-09-24T15:59:08.957Z,26.9
2022-09-24T16:04:10.766Z,26.9
2022-09-24T16:09:12.659Z,26.9
2022-09-24T16:14:14.441Z,26.9
2022-09-24T16:19:15.382Z,26.8
2022-09-24T16:24:17.118Z,26.8
2022-09-24T16:29:18.827Z,26.8
2022-09-24T16:34:20.568Z,26.8
2022-09-24T16:39:22.322Z,26.8
2022-09-24T16:44:24.028Z,26.8
2022-09-24T16:49:25.751Z,26.8
2022-09-24T16:54:27.518Z,26.8
2022-09-24T16:59:29.252Z,26.8
2022-09-24T17:04:31.198Z,26.8
2022-09-24T17:09:32.936Z,26.8
2022-09-24T17:14:34.872Z,26.8
2022-09-24T17:19:36.580Z,26.8
2022-09-24T17:24:38.312Z,26.8
2022-09-24T17:29:40.045Z,26.8
2022-09-24T17:34:45.616Z,26.8
2022-09-24T17:39:47.681Z,26.8
2022-09-24T17:44:49.395Z,26.8
2022-09-24T17:49:51.103Z,26.8
2022-09-24T17:54:52.864Z,26.8
2022-09-24T17:59:54.583Z,26.8
2022-09-24T18:04:56.299Z,26.8
2022-09-24T18:09:58.041Z,26.7
2022-09-24T18:14:59.758Z,26.7
2022-09-24T18:20:01.685Z,26.7
2022-09-24T18:25:03.402Z,26.7
2022-09-24T18:30:05.104Z,26.7
2022-09-24T18:35:06.838Z,26.7
2022-09-24T18:40:08.584Z,26.7
2022-09-24T18:45:10.659Z,26.7
2022-09-24T18:50:12.362Z,26.7
2022-09-24T18:55:14.057Z,26.7
2022-09-24T19:00:15.780Z,26.6
2022-09-24T19:05:17.482Z,26.7
2022-09-24T19:10:19.233Z,26.6
2022-09-24T19:15:20.951Z,26.6
2022-09-24T19:20:22.679Z,26.6
2022-09-24T19:25:24.435Z,26.6
2022-09-24T19:30:26.151Z,26.6
2022-09-24T19:35:27.861Z,26.6
2022-09-24T19:40:29.893Z,26.6
2022-09-24T19:45:31.755Z,26.6
2022-09-24T19:50:33.689Z,26.6
2022-09-24T19:55:35.413Z,26.6
2022-09-24T20:00:37.147Z,26.6
2022-09-24T20:05:38.879Z,26.6
2022-09-24T20:10:40.627Z,26.6
2022-09-24T20:15:42.631Z,26.6
2022-09-24T20:20:44.484Z,26.6
2022-09-24T20:25:46.465Z,26.6
2022-09-24T20:30:48.233Z,26.6
2022-09-24T20:35:49.984Z,26.6
2022-09-24T20:40:51.809Z,26.6
2022-09-24T20:45:53.721Z,26.6
2022-09-24T20:50:55.497Z,26.6
2022-09-24T20:55:57.247Z,26.5
2022-09-24T21:00:59.012Z,26.6
2022-09-24T21:06:01.077Z,26.6
2022-09-24T21:11:02.908Z,26.5
2022-09-24T21:16:04.841Z,26.5
2022-09-24T21:21:06.673Z,26.5
2022-09-24T21:26:08.387Z,26.5
2022-09-24T21:31:10.387Z,26.5
2022-09-24T21:36:12.202Z,26.5
2022-09-24T21:41:14.177Z,26.5
2022-09-24T21:46:15.972Z,26.5
2022-09-24T21:51:17.720Z,26.5
2022-09-24T21:56:19.711Z,26.5
2022-09-24T22:01:21.444Z,26.4
2022-09-24T22:06:23.301Z,26.4
2022-09-24T22:11:25.010Z,26.4
2022-09-24T22:16:26.744Z,26.4
2022-09-24T22:21:28.714Z,26.4
2022-09-24T22:26:30.458Z,26.4
2022-09-24T22:31:32.157Z,26.4
2022-09-24T22:36:33.885Z,26.4
2022-09-24T22:41:35.636Z,26.4
2022-09-24T22:46:37.374Z,26.4
2022-09-24T22:51:39.082Z,26.4
2022-09-24T22:56:40.823Z,26.4
2022-09-24T23:01:42.658Z,26.4
2022-09-24T23:06:44.469Z,26.4
2022-09-24T23:11:46.222Z,26.4
2022-09-24T23:16:48.036Z,26.4
2022-09-24T23:21:49.890Z,26.4
2022-09-24T23:26:51.617Z,26.4
2022-09-24T23:31:53.576Z,26.4
2022-09-24T23:36:55.294Z,26.4
2022-09-24T23:41:57.109Z,26.4
2022-09-24T23:46:58.813Z,26.4
2022-09-24T23:52:00.529Z,26.3
2022-09-24T23:57:02.255Z,26.4
